AAL1417 KPHL-KPBI
Flight info
| Callsign | AAL1417 |
|---|---|
| Flight time | N/A |
| Altitude | 36000 |
| Route | OOD TEBEE HAYDO TRPOD Q409 CRPLR EARZZ Q131 WAALT Y289 DULEE CLMNT2 |
| Aircraft | A320/M-SDE3FGHIRWY/LB1 |
Departure
| Time | 2026-05-07 22:55 |
|---|---|
| Airport | Philadelphia International Airport (KPHL) |
Arrival
| Time | N/A |
|---|---|
| Airport | Palm Beach International Airport (KPBI) |
| Time | Latitude | Longitude | Altitude | Speed | Heading |
|---|---|---|---|---|---|
| 2026-05-07 22:18 | 39.87748 | -75.23746 | 20 ft | 0 kts | 31° |
| 2026-05-07 22:42 | 39.87731 | -75.23760 | 19 ft | 4 kts | 30° |
| 2026-05-07 22:42 | 39.87708 | -75.23778 | 22 ft | 4 kts | 44° |
| 2026-05-07 22:42 | 39.87696 | -75.23805 | 21 ft | 4 kts | 92° |
| 2026-05-07 22:42 | 39.87699 | -75.23822 | 22 ft | 1 kts | 121° |
| 2026-05-07 22:46 | 39.87696 | -75.23816 | 22 ft | 2 kts | 121° |
| 2026-05-07 22:47 | 39.87676 | -75.23776 | 21 ft | 9 kts | 124° |
| 2026-05-07 22:47 | 39.87647 | -75.23716 | 18 ft | 7 kts | 121° |
| 2026-05-07 22:47 | 39.87626 | -75.23672 | 19 ft | 5 kts | 123° |
| 2026-05-07 22:47 | 39.87595 | -75.23624 | 21 ft | 8 kts | 142° |
| 2026-05-07 22:48 | 39.87516 | -75.23624 | 18 ft | 13 kts | 213° |
| 2026-05-07 22:48 | 39.87456 | -75.23697 | 19 ft | 11 kts | 224° |
| 2026-05-07 22:48 | 39.87420 | -75.23765 | 19 ft | 8 kts | 252° |
| 2026-05-07 22:48 | 39.87400 | -75.23768 | 19 ft | 6 kts | 146° |
| 2026-05-07 22:49 | 39.87365 | -75.23717 | 18 ft | 7 kts | 110° |
| 2026-05-07 22:49 | 39.87364 | -75.23655 | 18 ft | 6 kts | 82° |
| 2026-05-07 22:49 | 39.87376 | -75.23597 | 19 ft | 7 kts | 74° |
| 2026-05-07 22:49 | 39.87393 | -75.23511 | 18 ft | 12 kts | 76° |
| 2026-05-07 22:50 | 39.87414 | -75.23405 | 16 ft | 13 kts | 75° |
| 2026-05-07 22:50 | 39.87435 | -75.23301 | 20 ft | 11 kts | 75° |
| 2026-05-07 22:50 | 39.87452 | -75.23213 | 17 ft | 10 kts | 75° |
| 2026-05-07 22:50 | 39.87479 | -75.23073 | 17 ft | 19 kts | 76° |
| 2026-05-07 22:51 | 39.87507 | -75.22923 | 20 ft | 15 kts | 77° |
| 2026-05-07 22:51 | 39.87531 | -75.22805 | 19 ft | 13 kts | 71° |
| 2026-05-07 22:51 | 39.87558 | -75.22686 | 17 ft | 14 kts | 74° |
| 2026-05-07 22:51 | 39.87581 | -75.22567 | 16 ft | 13 kts | 77° |
| 2026-05-07 22:52 | 39.87598 | -75.22465 | 16 ft | 8 kts | 83° |
| 2026-05-07 22:52 | 39.87597 | -75.22442 | 16 ft | 0 kts | 99° |
| 2026-05-07 22:54 | 39.87575 | -75.22364 | 17 ft | 11 kts | 126° |
| 2026-05-07 22:54 | 39.87526 | -75.22340 | 19 ft | 5 kts | 190° |
| 2026-05-07 22:54 | 39.87510 | -75.22374 | 19 ft | 5 kts | 257° |
| 2026-05-07 22:54 | 39.87452 | -75.22649 | 18 ft | 67 kts | 255° |
| 2026-05-07 22:55 | 39.87288 | -75.23487 | 18 ft | 122 kts | 255° |
| 2026-05-07 22:55 | 39.87031 | -75.24750 | 21 ft | 166 kts | 257° |
| 2026-05-07 22:55 | 39.86730 | -75.26270 | 438 ft | 180 kts | 256° |
| 2026-05-07 22:55 | 39.86324 | -75.27920 | 886 ft | 202 kts | 253° |
| 2026-05-07 22:56 | 39.85791 | -75.29696 | 1491 ft | 219 kts | 248° |
| 2026-05-07 22:56 | 39.84838 | -75.31364 | 1924 ft | 247 kts | 215° |
| 2026-05-07 22:56 | 39.83149 | -75.32007 | 2544 ft | 265 kts | 178° |
| 2026-05-07 22:56 | 39.81320 | -75.31569 | 3451 ft | 269 kts | 168° |
| 2026-05-07 22:57 | 39.79487 | -75.31024 | 4400 ft | 272 kts | 168° |
| 2026-05-07 22:57 | 39.77637 | -75.30473 | 5310 ft | 275 kts | 168° |
| 2026-05-07 22:57 | 39.75763 | -75.29913 | 6202 ft | 278 kts | 168° |
| 2026-05-07 22:57 | 39.73852 | -75.29428 | 7008 ft | 281 kts | 177° |
| 2026-05-07 22:58 | 39.71896 | -75.29349 | 7852 ft | 282 kts | 187° |
| 2026-05-07 22:58 | 39.69937 | -75.29504 | 8723 ft | 282 kts | 191° |
| 2026-05-07 22:58 | 39.67978 | -75.29740 | 9618 ft | 283 kts | 194° |
| 2026-05-07 22:58 | 39.66006 | -75.29988 | 10336 ft | 291 kts | 194° |
| 2026-05-07 22:59 | 39.63911 | -75.30245 | 10557 ft | 314 kts | 193° |
| 2026-05-07 22:59 | 39.61664 | -75.30583 | 10748 ft | 336 kts | 195° |
| 2026-05-07 22:59 | 39.59309 | -75.31016 | 11229 ft | 345 kts | 195° |
| 2026-05-07 22:59 | 39.56929 | -75.31474 | 11975 ft | 347 kts | 196° |
| 2026-05-07 23:00 | 39.54537 | -75.31930 | 12780 ft | 348 kts | 196° |